Time;durP1;ratioP1;P1;durP2;ratioP2;P2;SDS_P1;SDS_P2;PMS_P1;PMS_P2;Temp;Humidity;BMP_temperature;BMP_pressure;BME280_temperature;BME280_humidity;BME280_pressure;Samples;Min_cycle;Max_cycle;Signal;HPM_P1;HPM_P2
2023/01/11 00:01:16;;;;;;;6.28;2.78;;;;;;;8.73;100.00;100606.53;5034543;28;20045;-72
2023/01/11 00:03:41;;;;;;;6.70;3.03;;;;;;;8.77;100.00;100610.78;5015490;28;20558;-73
2023/01/11 00:06:09;;;;;;;5.35;3.30;;;;;;;8.79;100.00;100610.66;5033204;28;20568;-76
2023/01/11 00:08:35;;;;;;;6.38;2.67;;;;;;;8.78;100.00;100612.50;5035321;28;20030;-73
2023/01/11 00:11:01;;;;;;;5.95;2.90;;;;;;;8.84;100.00;100613.91;5034903;28;20421;-73
2023/01/11 00:13:28;;;;;;;4.13;2.95;;;;;;;8.89;100.00;100604.47;5017291;28;20136;-73
2023/01/11 00:15:53;;;;;;;4.13;2.92;;;;;;;8.90;100.00;100595.38;5033635;28;20040;-73
2023/01/11 00:18:19;;;;;;;5.28;2.63;;;;;;;8.92;100.00;100593.44;5033416;28;20404;-73
2023/01/11 00:20:44;;;;;;;4.97;2.78;;;;;;;8.95;100.00;100589.63;5033492;28;20029;-73
2023/01/11 00:23:10;;;;;;;6.13;2.78;;;;;;;8.96;100.00;100585.09;5033944;28;20056;-74
2023/01/11 00:25:36;;;;;;;4.95;2.63;;;;;;;9.00;100.00;100590.19;5017053;28;20084;-73
2023/01/11 00:28:01;;;;;;;5.55;2.45;;;;;;;9.01;100.00;100585.63;5032886;28;20435;-73
2023/01/11 00:30:26;;;;;;;4.50;3.08;;;;;;;9.03;100.00;100580.94;5033258;28;20037;-74
2023/01/11 00:32:56;;;;;;;3.63;2.08;;;;;;;9.01;100.00;100567.50;5033137;28;20407;-73
2023/01/11 00:35:21;;;;;;;6.57;2.10;;;;;;;9.02;100.00;100576.50;5035339;28;20119;-73
2023/01/11 00:37:47;;;;;;;4.97;2.20;;;;;;;9.01;100.00;100569.34;5053505;28;20495;-72
2023/01/11 00:40:12;;;;;;;6.80;3.42;;;;;;;9.02;100.00;100569.22;5036886;28;20041;-72
2023/01/11 00:48:08;;;;;;;5.25;2.00;;;;;;;9.05;100.00;100582.59;5038162;28;20064;-73
2023/01/11 00:50:38;;;;;;;3.80;2.83;;;;;;;9.05;100.00;100577.16;5038682;28;20456;-72
2023/01/11 00:53:05;;;;;;;5.28;2.55;;;;;;;9.05;100.00;100562.72;5055201;28;20549;-74
2023/01/11 00:55:33;;;;;;;3.38;2.10;;;;;;;9.09;100.00;100569.66;5035417;28;20040;-74
2023/01/11 00:57:59;;;;;;;3.08;2.08;;;;;;;9.10;100.00;100574.13;5035020;28;20424;-73
2023/01/11 01:00:25;;;;;;;4.32;2.13;;;;;;;9.11;100.00;100567.72;5031362;28;20036;-73
2023/01/11 01:02:50;;;;;;;5.13;2.10;;;;;;;9.12;100.00;100562.16;5030418;28;20048;-73
2023/01/11 01:05:17;;;;;;;3.47;2.17;;;;;;;9.13;100.00;100563.91;5031370;28;20036;-72
2023/01/11 01:07:43;;;;;;;3.88;2.55;;;;;;;9.13;100.00;100558.47;5045794;28;20481;-73
2023/01/11 01:10:12;;;;;;;4.18;2.35;;;;;;;9.16;100.00;100557.41;5026370;28;20124;-72
2023/01/11 01:15:21;;;;;;;4.22;2.28;;;;;;;9.18;100.00;100560.84;5030235;28;20041;-73
2023/01/11 01:17:46;;;;;;;4.10;2.47;;;;;;;9.18;100.00;100567.16;5030108;28;20565;-73
2023/01/11 01:20:14;;;;;;;4.13;2.40;;;;;;;9.19;100.00;100559.91;5031448;28;20037;-72
2023/01/11 01:22:40;;;;;;;3.50;2.30;;;;;;;9.19;100.00;100568.91;5030128;28;20040;-72
2023/01/11 01:25:05;;;;;;;7.75;2.55;;;;;;;9.22;100.00;100567.81;5030427;28;20544;-73
2023/01/11 01:27:30;;;;;;;3.53;2.67;;;;;;;9.25;100.00;100574.88;5031182;28;20043;-73
2023/01/11 01:29:56;;;;;;;3.10;2.80;;;;;;;9.24;100.00;100568.59;5031330;28;20473;-72
2023/01/11 01:32:21;;;;;;;6.65;2.72;;;;;;;9.25;100.00;100556.75;5039110;28;20526;-72
2023/01/11 01:34:46;;;;;;;4.40;3.08;;;;;;;9.28;100.00;100566.50;5033521;28;20451;-73
2023/01/11 01:37:14;;;;;;;4.28;2.55;;;;;;;9.29;100.00;100569.13;5033236;28;20445;-73
2023/01/11 01:39:40;;;;;;;3.00;2.50;;;;;;;9.30;100.00;100564.56;5029492;28;20128;-73
2023/01/11 01:42:12;;;;;;;3.65;2.88;;;;;;;9.31;100.00;100564.44;5030444;28;20064;-74
2023/01/11 01:44:52;;;;;;;5.30;2.67;;;;;;;9.34;100.00;100572.38;5031233;28;20072;-73
2023/01/11 01:47:20;;;;;;;6.03;3.10;;;;;;;9.34;100.00;100569.66;5031213;28;20087;-73
2023/01/11 01:49:46;;;;;;;4.43;2.70;;;;;;;9.35;100.00;100567.81;5031043;28;20109;-74
2023/01/11 01:52:11;;;;;;;5.05;2.53;;;;;;;9.36;100.00;100556.81;5012902;28;20124;-72
2023/01/11 01:54:42;;;;;;;4.43;2.60;;;;;;;9.39;100.00;100558.47;5035123;28;20059;-73
2023/01/11 01:57:14;;;;;;;4.30;2.78;;;;;;;9.41;100.00;100564.66;5030872;28;20034;-74
2023/01/11 01:59:40;;;;;;;4.53;2.80;;;;;;;9.43;100.00;100557.28;5029700;28;20044;-72
2023/01/11 02:02:06;;;;;;;3.83;2.30;;;;;;;9.47;100.00;100564.22;5037036;28;20040;-74
2023/01/11 02:04:45;;;;;;;4.93;2.55;;;;;;;9.49;100.00;100562.25;5050652;28;20048;-73
2023/01/11 02:07:15;;;;;;;4.57;2.30;;;;;;;9.51;100.00;100562.13;5037293;28;20511;-73
2023/01/11 02:09:49;;;;;;;7.82;2.80;;;;;;;9.52;100.00;100564.75;5037205;28;20405;-73
2023/01/11 02:12:15;;;;;;;3.97;2.40;;;;;;;9.55;100.00;100559.06;5029433;28;20051;-73
2023/01/11 02:14:42;;;;;;;3.78;2.50;;;;;;;9.57;100.00;100559.00;5012650;28;20556;-74
2023/01/11 02:17:09;;;;;;;3.55;2.28;;;;;;;9.56;100.00;100558.13;5030690;28;20067;-76
2023/01/11 02:19:56;;;;;;;3.38;2.33;;;;;;;9.59;100.00;100563.31;5030811;28;20130;-73
2023/01/11 02:22:38;;;;;;;2.72;1.83;;;;;;;9.62;100.00;100559.50;5031226;28;20481;-73
2023/01/11 02:25:30;;;;;;;3.67;2.35;;;;;;;9.64;100.00;100565.69;5030671;28;20048;-73
2023/01/11 02:28:01;;;;;;;3.90;2.17;;;;;;;9.66;100.00;100561.03;5030305;28;20124;-73
2023/01/11 02:30:53;;;;;;;2.58;2.38;;;;;;;9.68;100.00;100565.34;5028849;28;20045;-73
2023/01/11 02:33:31;;;;;;;2.60;1.98;;;;;;;9.71;100.00;100557.00;5029886;28;20029;-72
2023/01/11 02:36:34;;;;;;;2.67;2.40;;;;;;;9.73;100.00;100546.00;5030589;28;20228;-73
2023/01/11 02:39:21;;;;;;;2.63;2.28;;;;;;;9.77;100.00;100550.22;5030100;28;20710;-73
2023/01/11 02:45:03;;;;;;;2.08;1.85;;;;;;;9.80;100.00;100546.44;5028497;28;20489;-73
2023/01/11 02:47:42;;;;;;;;;;;;;;;9.82;100.00;100544.47;5029184;28;20446;-75
2023/01/11 02:50:12;;;;;;;3.40;2.15;;;;;;;9.84;100.00;100534.34;5029809;28;20411;-75
2023/01/11 02:52:57;;;;;;;2.47;1.75;;;;;;;9.86;100.00;100535.97;5044712;28;20033;-74
2023/01/11 02:55:32;;;;;;;3.85;1.75;;;;;;;9.85;100.00;100536.97;5029811;28;20504;-73
2023/01/11 02:58:01;;;;;;;2.00;1.63;;;;;;;9.87;100.00;100539.56;5029772;28;20040;-74
2023/01/11 03:00:27;;;;;;;2.40;1.90;;;;;;;9.88;100.00;100550.28;5045843;28;20055;-74
2023/01/11 03:03:17;;;;;;;3.15;1.83;;;;;;;9.90;100.00;100539.34;5035817;28;20048;-73
2023/01/11 03:05:50;;;;;;;2.30;1.95;;;;;;;9.93;100.00;100534.53;5032945;28;20065;-74
2023/01/11 03:08:15;;;;;;;3.20;2.13;;;;;;;9.96;100.00;100541.59;5032776;28;20041;-73
2023/01/11 03:11:02;;;;;;;2.28;1.77;;;;;;;9.96;100.00;100537.00;5029272;28;20382;-76
2023/01/11 03:13:40;;;;;;;3.88;1.85;;;;;;;9.96;100.00;100525.28;5028355;28;20029;-73
2023/01/11 03:16:29;;;;;;;3.88;2.13;;;;;;;9.98;100.00;100528.75;5030355;28;20409;-75
2023/01/11 03:19:09;;;;;;;4.47;2.05;;;;;;;10.00;100.00;100534.06;5029556;28;20050;-74
2023/01/11 03:21:48;;;;;;;3.85;2.17;;;;;;;9.98;100.00;100531.47;5028608;28;20044;-74
2023/01/11 03:24:29;;;;;;;1.65;1.55;;;;;;;10.03;100.00;100532.00;5028991;28;20026;-73
2023/01/11 03:27:15;;;;;;;2.97;2.17;;;;;;;10.04;100.00;100536.44;5029322;28;20044;-74
2023/01/11 03:29:49;;;;;;;2.13;1.92;;;;;;;10.06;100.00;100541.75;5029086;28;20049;-73
2023/01/11 03:32:22;;;;;;;1.95;1.58;;;;;;;10.05;100.00;100538.19;5036059;28;20033;-74
2023/01/11 03:35:03;;;;;;;2.15;1.70;;;;;;;10.06;100.00;100536.31;5049133;28;20098;-73
2023/01/11 03:37:43;;;;;;;2.20;2.00;;;;;;;10.07;100.00;100529.91;5030104;28;20429;-73
2023/01/11 03:40:15;;;;;;;2.03;1.65;;;;;;;10.07;100.00;100533.50;5029147;28;20053;-73
2023/01/11 03:45:53;;;;;;;3.38;1.83;;;;;;;10.12;100.00;100538.59;5005176;28;20111;-74
2023/01/11 03:48:24;;;;;;;2.42;1.90;;;;;;;10.11;100.00;100531.41;5029151;28;20049;-73
2023/01/11 03:50:53;;;;;;;2.78;1.90;;;;;;;10.11;100.00;100534.97;5027904;28;20033;-73
2023/01/11 03:53:21;;;;;;;2.85;2.15;;;;;;;10.12;100.00;100528.59;5028714;28;20026;-74
2023/01/11 03:55:50;;;;;;;1.80;1.65;;;;;;;10.13;100.00;100532.16;5028918;28;20041;-74
2023/01/11 03:58:16;;;;;;;3.25;2.08;;;;;;;10.14;100.00;100533.91;5029104;28;20433;-74
2023/01/11 04:00:42;;;;;;;3.40;1.90;;;;;;;10.14;100.00;100540.19;5027551;28;20068;-74
2023/01/11 04:03:11;;;;;;;1.95;1.55;;;;;;;10.15;100.00;100535.63;5029032;28;20026;-75
2023/01/11 04:05:39;;;;;;;2.03;1.63;;;;;;;10.16;100.00;100546.38;5011190;28;20056;-74
2023/01/11 04:08:04;;;;;;;2.85;1.80;;;;;;;10.17;100.00;100541.84;5011504;28;20038;-73
2023/01/11 04:10:30;;;;;;;1.98;1.88;;;;;;;10.19;100.00;100545.28;5039955;28;20041;-73
2023/01/11 04:12:55;;;;;;;4.72;1.80;;;;;;;10.18;100.00;100538.97;5027377;28;20456;-73
2023/01/11 04:15:21;;;;;;;3.03;1.95;;;;;;;10.19;100.00;100546.16;5028876;28;20041;-72
2023/01/11 04:17:46;;;;;;;3.22;2.15;;;;;;;10.23;100.00;100554.94;5026998;28;20539;-72
2023/01/11 04:20:12;;;;;;;2.42;2.22;;;;;;;10.23;100.00;100555.81;5027316;28;20121;-74
2023/01/11 04:22:37;;;;;;;5.18;2.15;;;;;;;10.26;100.00;100556.59;5028976;28;20037;-73
2023/01/11 04:25:03;;;;;;;3.10;2.80;;;;;;;10.27;100.00;100561.06;5026082;28;20552;-73
2023/01/11 04:27:29;;;;;;;3.08;2.42;;;;;;;10.28;100.00;100560.94;5048753;28;20041;-73
2023/01/11 04:29:54;;;;;;;4.97;2.65;;;;;;;10.31;100.00;100559.84;5031802;28;20084;-72
2023/01/11 04:32:20;;;;;;;5.20;2.20;;;;;;;10.32;100.00;100564.28;5028578;28;20112;-72
2023/01/11 04:34:45;;;;;;;2.28;2.00;;;;;;;10.32;100.00;100553.41;5028081;28;20980;-72
2023/01/11 04:37:10;;;;;;;2.85;2.20;;;;;;;10.35;100.00;100575.81;5032045;28;20033;-71
2023/01/11 04:39:36;;;;;;;3.53;2.20;;;;;;;10.34;100.00;100560.47;5042695;28;20116;-72
2023/01/11 04:42:17;;;;;;;2.30;2.10;;;;;;;10.37;100.00;100568.41;5052692;28;20400;-73
2023/01/11 04:44:48;;;;;;;4.88;1.77;;;;;;;10.39;100.00;100571.00;5052020;28;20044;-71
2023/01/11 04:47:19;;;;;;;2.10;1.70;;;;;;;10.39;100.00;100577.28;5043231;28;20025;-72
2023/01/11 04:49:44;;;;;;;3.67;1.42;;;;;;;10.40;100.00;100576.34;5031018;28;20400;-72
2023/01/11 04:52:11;;;;;;;2.65;1.90;;;;;;;10.43;100.00;100591.53;5046909;28;20032;-72
2023/01/11 04:54:37;;;;;;;2.67;1.83;;;;;;;10.44;100.00;100579.66;5038927;28;20128;-75
2023/01/11 04:57:03;;;;;;;4.05;2.42;;;;;;;10.44;100.00;100588.72;5032218;28;20060;-73
2023/01/11 04:59:28;;;;;;;2.33;2.00;;;;;;;10.43;100.00;100583.38;5031847;28;20400;-73
2023/01/11 05:01:53;;;;;;;5.57;2.22;;;;;;;10.44;100.00;100590.53;5029993;28;20029;-73
2023/01/11 05:04:19;;;;;;;1.73;1.63;;;;;;;10.43;100.00;100581.50;5030655;28;20037;-72
2023/01/11 05:06:44;;;;;;;2.65;1.98;;;;;;;10.44;100.00;100579.66;5013831;28;20041;-72
2023/01/11 05:09:15;;;;;;;4.38;2.10;;;;;;;10.45;100.00;100579.56;5031540;28;20033;-71
2023/01/11 05:11:41;;;;;;;3.00;2.55;;;;;;;10.45;100.00;100586.84;5036796;28;20056;-71
2023/01/11 05:14:07;;;;;;;2.78;2.17;;;;;;;10.45;100.00;100576.84;5050399;28;20025;-72
2023/01/11 05:16:32;;;;;;;3.05;2.50;;;;;;;10.46;100.00;100588.59;5048308;28;20029;-71
2023/01/11 05:19:00;;;;;;;4.30;2.42;;;;;;;10.46;100.00;100589.44;5029955;28;20397;-71
2023/01/11 05:21:28;;;;;;;5.32;3.40;;;;;;;10.47;100.00;100603.91;5030006;28;20034;-71
2023/01/11 05:23:54;;;;;;;4.05;3.05;;;;;;;10.45;100.00;100601.31;5029935;28;20484;-73
2023/01/11 05:26:22;;;;;;;9.23;3.55;;;;;;;10.45;100.00;100609.47;5013413;28;20041;-72
2023/01/11 05:28:48;;;;;;;5.22;3.03;;;;;;;10.47;100.00;100609.34;5030054;28;20385;-72
2023/01/11 05:31:14;;;;;;;4.53;3.47;;;;;;;10.46;100.00;100607.63;5030333;28;20461;-72
2023/01/11 05:33:40;;;;;;;7.18;4.00;;;;;;;10.47;100.00;100618.38;5031534;28;20184;-71
2023/01/11 05:36:09;;;;;;;4.30;3.65;;;;;;;10.45;100.00;100614.91;5021664;28;20120;-72
2023/01/11 05:38:34;;;;;;;4.45;3.47;;;;;;;10.45;100.00;100608.63;5031533;28;20040;-72
2023/01/11 05:41:06;;;;;;;5.15;3.85;;;;;;;10.44;100.00;100613.19;5012897;28;20111;-72
2023/01/11 05:43:32;;;;;;;4.60;3.92;;;;;;;10.41;100.00;100601.66;5030155;28;20037;-73
2023/01/11 05:45:59;;;;;;;5.47;3.75;;;;;;;10.42;100.00;100614.28;5030948;28;20465;-72
2023/01/11 05:48:25;;;;;;;12.02;4.78;;;;;;;10.41;100.00;100610.69;5029243;28;20037;-72
2023/01/11 05:50:54;;;;;;;6.53;4.07;;;;;;;10.40;100.00;100616.25;5031142;28;20095;-72
2023/01/11 05:53:22;;;;;;;7.68;4.80;;;;;;;10.40;100.00;100619.84;5030880;28;20045;-72
2023/01/11 05:55:55;;;;;;;6.85;4.07;;;;;;;10.40;100.00;100627.13;5029990;28;20064;-71
2023/01/11 05:58:23;;;;;;;13.45;5.10;;;;;;;10.39;100.00;100634.41;5029466;28;20401;-72
2023/01/11 06:00:54;;;;;;;7.72;3.80;;;;;;;10.37;100.00;100621.91;5012967;28;20029;-71
2023/01/11 06:03:21;;;;;;;7.70;3.13;;;;;;;10.33;100.00;100628.56;5029629;28;20558;-72
2023/01/11 06:05:46;;;;;;;13.95;2.65;;;;;;;10.29;100.00;100637.94;5030290;28;20121;-72
2023/01/11 06:08:12;;;;;;;5.65;3.05;;;;;;;10.23;100.00;100640.09;5031014;28;20508;-71
2023/01/11 06:10:38;;;;;;;10.63;2.90;;;;;;;10.20;100.00;100636.72;5030588;28;20028;-73
2023/01/11 06:15:47;;;;;;;9.07;2.95;;;;;;;10.07;100.00;100633.19;5042899;28;20040;-72
2023/01/11 06:18:13;;;;;;;8.85;2.58;;;;;;;10.05;100.00;100646.03;5035007;28;20110;-71
2023/01/11 06:20:38;;;;;;;13.32;3.75;;;;;;;10.01;100.00;100656.25;5012165;28;20021;-72
2023/01/11 06:23:04;;;;;;;17.45;2.90;;;;;;;9.99;100.00;100657.34;5030611;28;20499;-72
2023/01/11 06:25:29;;;;;;;11.27;2.60;;;;;;;9.92;100.00;100662.34;5047114;28;20190;-72
2023/01/11 06:27:56;;;;;;;14.38;3.42;;;;;;;9.89;100.00;100676.19;5050176;28;20024;-71
2023/01/11 06:30:24;;;;;;;11.77;2.35;;;;;;;9.84;100.00;100675.63;5050300;28;20502;-73
2023/01/11 06:32:51;;;;;;;10.38;2.80;;;;;;;9.78;100.00;100666.06;5035438;28;20041;-72
2023/01/11 06:35:16;;;;;;;13.95;2.35;;;;;;;9.74;100.00;100679.97;5030333;28;20045;-72
2023/01/11 06:37:41;;;;;;;11.82;2.40;;;;;;;9.69;100.00;100681.16;5030201;28;20017;-71
2023/01/11 06:40:07;;;;;;;10.10;2.30;;;;;;;9.68;100.00;100695.75;5029102;28;20045;-74
2023/01/11 06:42:33;;;;;;;8.38;2.60;;;;;;;9.65;100.00;100704.13;5028620;28;20037;-72
2023/01/11 06:44:58;;;;;;;12.82;3.15;;;;;;;9.61;100.00;100699.03;5027013;28;20112;-73
2023/01/11 06:47:24;;;;;;;11.77;3.13;;;;;;;9.60;100.00;100709.00;5035653;28;20071;-72
2023/01/11 06:49:49;;;;;;;10.52;2.80;;;;;;;9.56;100.00;100691.19;5048719;28;20086;-71
2023/01/11 06:52:14;;;;;;;17.42;2.92;;;;;;;9.54;100.00;100700.41;5033771;28;20033;-71
2023/01/11 06:54:40;;;;;;;12.73;2.67;;;;;;;9.51;100.00;100735.94;5029492;28;20045;-72
2023/01/11 06:57:05;;;;;;;23.77;2.85;;;;;;;9.48;100.00;100741.59;5029502;28;20025;-71
2023/01/11 06:59:30;;;;;;;12.32;2.15;;;;;;;9.44;100.00;100727.34;5028304;28;20469;-72
2023/01/11 07:01:57;;;;;;;18.23;3.08;;;;;;;9.44;100.00;100725.50;5029659;28;20555;-71
2023/01/11 07:04:23;;;;;;;16.75;3.42;;;;;;;9.42;100.00;100719.31;5029395;28;20061;-72
2023/01/11 07:06:48;;;;;;;18.10;2.60;;;;;;;9.40;100.00;100718.53;5028329;28;20060;-74
2023/01/11 07:09:13;;;;;;;13.63;2.38;;;;;;;9.36;100.00;100724.28;5028954;28;20030;-73
2023/01/11 07:11:39;;;;;;;11.05;2.45;;;;;;;9.37;100.00;100731.44;5027146;28;20037;-72
2023/01/11 07:14:05;;;;;;;22.27;2.70;;;;;;;9.35;100.00;100744.28;5027895;28;20495;-73
2023/01/11 07:16:30;;;;;;;11.15;2.83;;;;;;;9.34;100.00;100748.84;5028174;28;20026;-72
2023/01/11 07:18:56;;;;;;;16.90;3.42;;;;;;;9.34;100.00;100758.84;5038189;28;20041;-71
2023/01/11 07:21:21;;;;;;;21.63;3.38;;;;;;;9.31;100.00;100762.63;5018969;28;20036;-72
2023/01/11 07:23:47;;;;;;;13.35;2.55;;;;;;;9.29;100.00;100764.56;5044943;28;20116;-71
2023/01/11 07:26:15;;;;;;;21.35;4.28;;;;;;;9.27;100.00;100774.66;5028528;28;20342;-71
2023/01/11 07:28:42;;;;;;;21.92;3.78;;;;;;;9.25;100.00;100764.88;5028502;28;20049;-73
2023/01/11 07:31:07;;;;;;;12.93;2.88;;;;;;;9.22;100.00;100779.53;5028378;28;20103;-74
2023/01/11 07:33:32;;;;;;;23.38;3.90;;;;;;;9.17;100.00;100787.97;5028904;28;20453;-71
2023/01/11 07:35:59;;;;;;;17.70;3.45;;;;;;;9.14;100.00;100787.34;5027985;28;20032;-72
2023/01/11 07:38:27;;;;;;;13.98;3.05;;;;;;;9.08;100.00;100772.31;5027701;28;20074;-72
2023/01/11 07:40:52;;;;;;;20.05;2.63;;;;;;;9.07;100.00;100788.72;5028642;28;20056;-71
2023/01/11 07:43:20;;;;;;;23.40;3.40;;;;;;;9.03;100.00;100795.31;5029135;28;20029;-72
2023/01/11 07:45:48;;;;;;;18.33;3.58;;;;;;;8.99;100.00;100800.06;5028560;28;20102;-72
2023/01/11 07:48:14;;;;;;;24.77;3.10;;;;;;;8.95;100.00;100801.25;5043123;28;20041;-72
2023/01/11 07:50:41;;;;;;;15.02;3.05;;;;;;;8.92;100.00;100806.91;5044906;28;20213;-72
2023/01/11 07:53:07;;;;;;;20.13;3.95;;;;;;;8.88;100.00;100816.19;5029284;28;20037;-71
2023/01/11 07:55:33;;;;;;;25.65;4.40;;;;;;;8.84;100.00;100820.94;5046532;28;20515;-71
2023/01/11 07:57:59;;;;;;;14.60;3.90;;;;;;;8.81;100.00;100826.59;5043460;28;20029;-72
2023/01/11 08:00:25;;;;;;;20.17;3.10;;;;;;;8.78;100.00;100826.78;5027405;28;20037;-71
2023/01/11 08:02:54;;;;;;;12.35;2.85;;;;;;;8.73;100.00;100830.78;5027361;28;20061;-73
2023/01/11 08:05:19;;;;;;;15.82;3.10;;;;;;;8.71;100.00;100825.44;5027707;28;20037;-72
2023/01/11 08:07:45;;;;;;;19.90;3.95;;;;;;;8.69;100.00;100835.53;5026927;28;20516;-73
2023/01/11 08:10:11;;;;;;;14.00;3.03;;;;;;;8.65;100.00;100845.69;5045286;28;20102;-71
2023/01/11 08:15:31;;;;;;;10.20;2.45;;;;;;;8.58;100.00;100847.06;5050545;28;20496;-72
2023/01/11 08:17:57;;;;;;;22.45;3.67;;;;;;;8.59;100.00;100853.38;5031162;28;20497;-72
2023/01/11 08:20:28;;;;;;;25.75;3.70;;;;;;;8.54;100.00;100856.38;5030928;28;20033;-74
2023/01/11 08:22:54;;;;;;;14.32;2.90;;;;;;;8.51;100.00;100870.09;5031420;28;20481;-71
2023/01/11 08:25:20;;;;;;;9.18;2.67;;;;;;;8.48;100.00;100877.56;5031986;28;20411;-71
2023/01/11 08:27:45;;;;;;;12.80;2.85;;;;;;;8.42;100.00;100884.25;5032183;28;20040;-73
2023/01/11 08:30:11;;;;;;;14.40;2.70;;;;;;;8.39;100.00;100888.03;5030934;28;20038;-72
2023/01/11 08:32:37;;;;;;;21.20;3.55;;;;;;;8.37;100.00;100897.22;5041372;28;20040;-75
2023/01/11 08:35:03;;;;;;;21.88;4.07;;;;;;;8.32;100.00;100897.47;5034663;28;20475;-72
2023/01/11 08:37:28;;;;;;;14.82;2.97;;;;;;;8.31;100.00;100900.28;5017008;28;20397;-72
2023/01/11 08:39:55;;;;;;;18.00;3.80;;;;;;;8.27;100.00;100905.03;5031770;28;20084;-71
2023/01/11 08:42:20;;;;;;;20.65;3.28;;;;;;;8.25;100.00;100912.34;5032439;28;20041;-72
2023/01/11 08:44:46;;;;;;;10.27;2.08;;;;;;;8.24;100.00;100910.63;5031001;28;20555;-73
2023/01/11 08:47:11;;;;;;;18.70;4.95;;;;;;;8.23;100.00;100908.88;5036043;28;20472;-71
2023/01/11 08:49:37;;;;;;;19.17;2.80;;;;;;;8.19;100.00;100913.63;5052617;28;20484;-72
2023/01/11 08:52:02;;;;;;;18.48;2.90;;;;;;;8.17;100.00;100918.28;5038601;28;20037;-71
2023/01/11 08:54:28;;;;;;;14.27;2.90;;;;;;;8.15;100.00;100922.03;5038938;28;20029;-71
2023/01/11 08:56:54;;;;;;;15.05;2.50;;;;;;;8.11;100.00;100934.91;5052125;28;20350;-72
2023/01/11 08:59:20;;;;;;;22.52;3.25;;;;;;;8.09;100.00;100941.38;5050513;28;20041;-70
2023/01/11 09:01:46;;;;;;;16.70;3.17;;;;;;;8.06;100.00;100936.13;5047551;28;20037;-72
2023/01/11 09:04:11;;;;;;;23.90;3.00;;;;;;;8.07;100.00;100954.16;5031942;28;20376;-72
2023/01/11 09:06:37;;;;;;;16.95;3.47;;;;;;;8.03;100.00;100960.72;5032435;28;20392;-75
2023/01/11 09:09:02;;;;;;;15.77;2.55;;;;;;;8.03;100.00;100956.16;5035147;28;20040;-71
2023/01/11 09:14:12;;;;;;;10.52;2.53;;;;;;;8.00;100.00;100945.50;5050348;28;20143;-72
2023/01/11 09:16:37;;;;;;;11.10;2.22;;;;;;;7.99;100.00;100946.47;5050123;28;20116;-75
2023/01/11 09:19:02;;;;;;;24.27;3.20;;;;;;;7.96;100.00;100943.06;5014239;28;20033;-72
2023/01/11 09:21:29;;;;;;;16.13;2.50;;;;;;;7.95;100.00;100955.75;5020816;28;20029;-72
2023/01/11 09:23:55;;;;;;;17.73;3.85;;;;;;;7.93;100.00;100965.81;5045369;28;20021;-71
2023/01/11 09:26:20;;;;;;;10.82;2.70;;;;;;;7.89;100.00;100967.84;5030250;28;20705;-71
2023/01/11 09:28:46;;;;;;;18.27;3.08;;;;;;;7.86;100.00;100959.88;5046439;28;20506;-72
2023/01/11 09:31:11;;;;;;;11.75;2.78;;;;;;;7.84;100.00;100971.78;5031880;28;20040;-71
2023/01/11 09:33:39;;;;;;;17.45;2.78;;;;;;;7.80;100.00;100981.91;5013821;28;20555;-71
2023/01/11 09:36:05;;;;;;;10.18;2.33;;;;;;;7.78;100.00;100980.25;5031874;28;20481;-72
2023/01/11 09:38:32;;;;;;;21.50;3.10;;;;;;;7.75;100.00;100981.31;5031077;28;20083;-71
2023/01/11 09:41:07;;;;;;;20.75;2.95;;;;;;;7.77;100.00;100987.50;5029880;28;20046;-73
2023/01/11 09:43:38;;;;;;;13.50;2.40;;;;;;;7.76;100.00;100984.91;5013569;28;20110;-71
2023/01/11 09:46:07;;;;;;;12.80;2.35;;;;;;;7.79;100.00;100993.72;5031238;28;20041;-71
2023/01/11 09:48:46;;;;;;;18.67;3.55;;;;;;;7.85;100.00;100998.78;5031194;28;20091;-71
2023/01/11 09:51:15;;;;;;;14.80;2.88;;;;;;;7.85;100.00;100993.34;5031211;28;20508;-71
2023/01/11 09:53:48;;;;;;;16.38;2.55;;;;;;;7.85;100.00;101000.59;5032154;28;20480;-71
2023/01/11 09:56:22;;;;;;;14.10;2.30;;;;;;;7.83;100.00;101000.72;5049434;28;20028;-71
2023/01/11 09:59:19;;;;;;;18.08;3.10;;;;;;;7.85;100.00;101003.31;5032571;28;20407;-71
2023/01/11 10:01:52;;;;;;;13.27;2.00;;;;;;;7.85;100.00;101006.03;5031402;28;20117;-71
2023/01/11 10:04:50;;;;;;;19.58;1.88;;;;;;;7.90;100.00;101004.78;5030441;28;20094;-71
2023/01/11 10:07:36;;;;;;;16.90;2.40;;;;;;;7.96;100.00;100995.41;5024892;28;20085;-71
2023/01/11 10:10:23;;;;;;;13.52;2.50;;;;;;;8.02;100.00;101008.63;5030338;28;20538;-71
2023/01/11 10:13:12;;;;;;;25.52;4.13;;;;;;;8.11;100.00;101009.88;5029171;28;20540;-72
2023/01/11 10:16:04;;;;;;;17.25;2.40;;;;;;;8.15;100.00;101003.31;5034944;28;20056;-73
2023/01/11 10:18:50;;;;;;;22.45;4.40;;;;;;;8.19;100.00;101003.03;5031919;28;20068;-71
2023/01/11 10:21:27;;;;;;;19.02;3.40;;;;;;;8.26;100.00;101009.00;5028856;28;20060;-71
2023/01/11 10:24:01;;;;;;;10.68;2.72;;;;;;;8.31;100.00;101008.72;5032917;28;20554;-71
2023/01/11 10:26:38;;;;;;;24.23;2.80;;;;;;;8.34;100.00;101014.78;5024316;28;20041;-71
2023/01/11 10:32:33;;;;;;;15.02;2.67;;;;;;;8.40;100.00;101000.94;5027855;28;20069;-71
2023/01/11 10:35:28;;;;;;;14.02;3.97;;;;;;;8.40;100.00;101003.63;5029029;28;20041;-71
2023/01/11 10:38:28;;;;;;;17.50;2.90;;;;;;;8.47;100.00;101008.69;5030017;28;20065;-71
2023/01/11 10:41:13;;;;;;;20.60;2.83;;;;;;;8.55;100.00;101014.50;5028033;28;20057;-71
2023/01/11 10:43:42;;;;;;;13.13;2.72;;;;;;;8.57;100.00;101010.72;5029322;28;20037;-71
2023/01/11 10:46:16;;;;;;;16.67;3.22;;;;;;;8.63;100.00;101012.22;5029750;28;20426;-72
2023/01/11 10:48:43;;;;;;;14.15;2.55;;;;;;;8.69;100.00;101017.25;5028449;28;20508;-72
2023/01/11 10:51:26;;;;;;;15.98;2.72;;;;;;;8.73;100.00;101010.66;5011611;28;20041;-71
2023/01/11 10:53:54;;;;;;;15.93;3.13;;;;;;;8.76;100.00;101010.44;5029645;28;20488;-71
2023/01/11 10:56:35;;;;;;;19.90;3.35;;;;;;;8.80;100.00;101014.72;5029601;28;20029;-71
2023/01/11 10:59:15;;;;;;;13.63;3.10;;;;;;;8.85;100.00;101018.00;5011474;28;20311;-71
2023/01/11 11:01:41;;;;;;;22.33;2.92;;;;;;;8.90;100.00;101012.31;5028022;28;20037;-71
2023/01/11 11:04:31;;;;;;;14.95;2.53;;;;;;;8.94;99.88;101017.44;5028224;28;20136;-71
2023/01/11 11:07:12;;;;;;;12.57;3.00;;;;;;;8.98;99.09;101019.97;5040154;28;20103;-72
2023/01/11 11:09:57;;;;;;;7.50;2.33;;;;;;;9.02;99.68;101014.25;5039131;28;20045;-74
2023/01/11 11:12:29;;;;;;;19.17;2.60;;;;;;;9.10;98.48;101020.06;5029124;28;20038;-71
2023/01/11 11:15:09;;;;;;;20.25;3.10;;;;;;;9.15;97.79;101028.78;5029095;28;20116;-70
2023/01/11 11:17:37;;;;;;;14.18;2.75;;;;;;;9.20;97.69;101032.09;5029471;28;20029;-70
2023/01/11 11:20:13;;;;;;;19.80;2.78;;;;;;;9.27;97.83;101018.09;5029247;28;20411;-71
2023/01/11 11:22:38;;;;;;;18.65;2.67;;;;;;;9.30;96.05;101017.91;5027689;28;20033;-71
2023/01/11 11:25:13;;;;;;;15.50;3.20;;;;;;;9.33;95.63;101023.16;5029066;28;20397;-70
2023/01/11 11:27:43;;;;;;;15.90;3.15;;;;;;;9.36;96.82;101029.25;5027308;28;20099;-71
2023/01/11 11:30:13;;;;;;;15.88;3.17;;;;;;;9.38;93.80;101021.03;5028865;28;20034;-70
2023/01/11 11:32:44;;;;;;;19.65;3.95;;;;;;;9.39;94.56;101011.91;5011645;28;20037;-71
2023/01/11 11:35:35;;;;;;;13.95;2.60;;;;;;;9.43;94.81;101029.75;5033243;28;20043;-71
2023/01/11 11:38:01;;;;;;;24.45;3.30;;;;;;;9.44;95.10;101032.34;5028897;28;20061;-71
2023/01/11 11:40:29;;;;;;;15.02;3.28;;;;;;;9.44;93.71;101031.47;5028466;28;20603;-71
2023/01/11 11:43:21;;;;;;;13.05;2.60;;;;;;;9.48;94.45;101038.47;5028733;28;20041;-71
2023/01/11 11:45:58;;;;;;;16.70;3.03;;;;;;;9.50;92.81;101041.06;5027527;28;20520;-72
2023/01/11 11:48:26;;;;;;;15.02;2.60;;;;;;;9.43;90.96;101030.59;5028601;28;20120;-71
2023/01/11 11:50:54;;;;;;;15.68;3.03;;;;;;;9.42;90.26;101042.44;5028562;28;20060;-71
2023/01/11 11:53:32;;;;;;;13.48;2.97;;;;;;;9.37;91.47;101043.69;5028728;28;20071;-71
2023/01/11 11:55:59;;;;;;;23.38;3.85;;;;;;;9.36;91.10;101048.25;5048454;28;20033;-70
2023/01/11 11:58:25;;;;;;;14.95;2.75;;;;;;;9.40;90.82;101049.81;5048348;28;20053;-71